createdAt,value
2017-03-22T00:01:02.774Z,22.1
2017-03-22T00:02:10.862Z,22.2
2017-03-22T00:03:18.949Z,22.2
2017-03-22T00:04:27.032Z,22.1
2017-03-22T00:05:35.126Z,22.2
2017-03-22T00:06:43.209Z,22.2
2017-03-22T00:07:51.379Z,22.2
2017-03-22T00:08:59.387Z,22.2
2017-03-22T00:10:07.475Z,22.2
2017-03-22T00:11:15.558Z,22.2
2017-03-22T00:12:23.650Z,22.3
2017-03-22T00:13:31.739Z,22.2
2017-03-22T00:14:39.831Z,22.1
2017-03-22T00:15:47.908Z,22.2
2017-03-22T00:16:56.000Z,22.2
2017-03-22T00:18:04.088Z,22.2
2017-03-22T00:19:12.172Z,22.3
2017-03-22T00:20:20.261Z,22.2
2017-03-22T00:21:28.350Z,22.2
2017-03-22T00:22:36.437Z,22.2
2017-03-22T00:23:44.520Z,22.3
2017-03-22T00:24:52.628Z,22.3
2017-03-22T00:26:00.700Z,22.3
2017-03-22T00:27:08.786Z,22.3
2017-03-22T00:28:16.876Z,22.3
2017-03-22T00:29:24.965Z,22.3
2017-03-22T00:30:33.047Z,22.2
2017-03-22T00:31:41.134Z,22.3
2017-03-22T00:32:49.232Z,22.3
2017-03-22T00:33:57.312Z,22.3
2017-03-22T00:35:05.397Z,22.3
2017-03-22T00:36:13.485Z,22.3
2017-03-22T00:37:21.574Z,22.2
2017-03-22T00:38:29.658Z,22.3
2017-03-22T00:39:37.745Z,22.3
2017-03-22T00:40:45.834Z,22.3
2017-03-22T00:41:53.923Z,22.3
2017-03-22T00:43:02.005Z,22.3
2017-03-22T00:44:10.095Z,22.3
2017-03-22T00:45:18.185Z,22.3
2017-03-22T00:46:26.269Z,22.3
2017-03-22T00:47:34.353Z,22.4
2017-03-22T00:48:42.446Z,22.4
2017-03-22T00:49:50.533Z,22.3
2017-03-22T00:50:58.620Z,22.4
2017-03-22T00:52:06.708Z,22.4
2017-03-22T00:53:14.794Z,22.4
2017-03-22T00:54:22.877Z,22.3
2017-03-22T00:55:30.962Z,22.4
2017-03-22T00:56:39.051Z,22.3
2017-03-22T00:57:47.146Z,22.3
2017-03-22T00:58:55.226Z,22.4
2017-03-22T01:00:03.311Z,22.4
2017-03-22T01:01:11.404Z,22.4
2017-03-22T01:02:19.491Z,22.4
2017-03-22T01:03:27.576Z,22.4
2017-03-22T01:04:35.673Z,22.5
2017-03-22T01:05:43.748Z,22.5
2017-03-22T01:06:51.833Z,22.4
2017-03-22T01:07:59.925Z,22.4
2017-03-22T01:09:08.011Z,22.4
2017-03-22T01:10:16.096Z,22.4
2017-03-22T01:11:24.183Z,22.4
2017-03-22T01:12:32.272Z,22.3
2017-03-22T01:13:40.359Z,22.4
2017-03-22T01:14:48.446Z,22.4
2017-03-22T01:15:56.537Z,22.4
2017-03-22T01:17:04.624Z,22.4
2017-03-22T01:18:12.707Z,22.5
2017-03-22T01:19:20.793Z,22.4
2017-03-22T01:20:28.882Z,22.4
2017-03-22T01:21:36.970Z,22.4
2017-03-22T01:22:45.055Z,22.4
2017-03-22T01:23:53.144Z,22.4
2017-03-22T01:25:01.494Z,22.4
2017-03-22T01:26:09.318Z,22.4
2017-03-22T01:27:17.407Z,22.4
2017-03-22T01:28:25.494Z,22.4
2017-03-22T01:29:33.581Z,22.3
2017-03-22T01:30:41.664Z,22.4
2017-03-22T01:31:49.757Z,22.4
2017-03-22T01:32:57.850Z,22.4
2017-03-22T01:34:05.932Z,22.4
2017-03-22T01:35:14.020Z,22.4
2017-03-22T01:36:22.114Z,22.3
2017-03-22T01:37:30.199Z,22.4
2017-03-22T01:38:38.290Z,22.4
2017-03-22T01:39:46.380Z,22.3
2017-03-22T01:40:54.505Z,22.4
2017-03-22T01:42:02.556Z,22.4
2017-03-22T01:43:10.650Z,22.4
2017-03-22T01:44:18.734Z,22.4
2017-03-22T01:45:26.820Z,22.3
2017-03-22T01:46:34.908Z,22.3
2017-03-22T01:47:42.997Z,22.3
2017-03-22T01:48:51.090Z,22.3
2017-03-22T01:49:59.251Z,22.3
2017-03-22T01:51:07.273Z,22.3
2017-03-22T01:52:15.360Z,22.3
2017-03-22T01:53:23.446Z,22.3
2017-03-22T01:54:31.538Z,22.3
2017-03-22T01:55:39.628Z,22.3
2017-03-22T01:56:47.716Z,22.3
2017-03-22T01:57:55.800Z,22.2
2017-03-22T01:59:03.883Z,22.3
2017-03-22T02:00:11.975Z,22.3
2017-03-22T02:01:20.061Z,22.2
2017-03-22T02:02:28.146Z,22.3
2017-03-22T02:03:36.234Z,22.3
2017-03-22T02:04:44.321Z,22.3
2017-03-22T02:05:52.405Z,22.3
2017-03-22T02:07:00.494Z,22.2
2017-03-22T02:08:08.585Z,22.2
2017-03-22T02:09:16.673Z,22.2
2017-03-22T02:10:24.756Z,22.2
2017-03-22T02:11:32.848Z,22.2
2017-03-22T02:12:40.935Z,22.2
2017-03-22T02:13:49.021Z,22.3
2017-03-22T02:14:57.108Z,22.2
2017-03-22T02:16:05.197Z,22.2
2017-03-22T02:17:13.281Z,22.1
2017-03-22T02:18:21.369Z,22.2
2017-03-22T02:19:29.459Z,22.2
2017-03-22T02:20:37.545Z,22.2
2017-03-22T02:21:45.633Z,22.2
2017-03-22T02:22:53.721Z,22.2
2017-03-22T02:24:01.807Z,22.1
2017-03-22T02:25:09.894Z,22.2
2017-03-22T02:26:17.976Z,22.1
2017-03-22T02:27:26.067Z,22.1
2017-03-22T02:28:34.152Z,22.1
2017-03-22T02:29:42.233Z,22.1
2017-03-22T02:30:50.327Z,22.1
2017-03-22T02:31:58.414Z,22.1
2017-03-22T02:33:06.498Z,22.1
2017-03-22T02:34:14.589Z,22.0
2017-03-22T02:35:22.675Z,22.0
2017-03-22T02:36:30.861Z,22.0
2017-03-22T02:37:38.850Z,22.0
2017-03-22T02:38:46.947Z,22.0
2017-03-22T02:39:55.028Z,22.0
2017-03-22T02:41:03.144Z,22.0
2017-03-22T02:42:11.204Z,22.0
2017-03-22T02:43:19.292Z,21.9
2017-03-22T02:44:27.375Z,22.0
2017-03-22T02:45:35.466Z,22.0
2017-03-22T02:46:43.553Z,22.0
2017-03-22T02:47:51.643Z,21.9
2017-03-22T02:48:59.725Z,21.9
2017-03-22T02:50:07.812Z,21.9
2017-03-22T02:51:15.897Z,21.9
2017-03-22T02:52:23.983Z,21.9
2017-03-22T02:53:32.132Z,21.8
2017-03-22T02:54:40.159Z,21.9
2017-03-22T02:55:48.241Z,21.9
2017-03-22T02:56:56.328Z,21.9
2017-03-22T02:58:04.419Z,21.9
2017-03-22T02:59:12.506Z,21.9
2017-03-22T03:00:20.598Z,21.8
2017-03-22T03:01:28.677Z,21.8
2017-03-22T03:02:36.766Z,21.8
2017-03-22T03:03:44.863Z,21.8
2017-03-22T03:04:52.947Z,21.8
2017-03-22T03:06:01.036Z,21.8
2017-03-22T03:07:09.124Z,21.8
2017-03-22T03:08:17.204Z,21.8
2017-03-22T03:09:25.294Z,21.7
2017-03-22T03:10:33.408Z,21.7
2017-03-22T03:11:41.474Z,21.7
2017-03-22T03:12:49.570Z,21.8
2017-03-22T03:13:57.662Z,21.7
2017-03-22T03:15:05.749Z,21.7
2017-03-22T03:16:13.834Z,21.7
2017-03-22T03:17:21.918Z,21.6
2017-03-22T03:18:30.007Z,21.7
2017-03-22T03:19:38.094Z,21.6
2017-03-22T03:20:46.180Z,21.7
2017-03-22T03:21:54.265Z,21.6
2017-03-22T03:23:02.350Z,21.6
2017-03-22T03:24:10.449Z,21.6
2017-03-22T03:25:18.521Z,21.7
2017-03-22T03:26:26.610Z,21.6
2017-03-22T03:27:34.699Z,21.6
2017-03-22T03:28:42.781Z,21.7
2017-03-22T03:29:50.871Z,21.8
2017-03-22T03:30:58.955Z,21.6
2017-03-22T03:32:07.037Z,21.6
2017-03-22T03:33:15.125Z,21.6
2017-03-22T03:34:23.213Z,21.6
2017-03-22T03:35:31.298Z,21.5
2017-03-22T03:36:39.384Z,21.6
2017-03-22T03:37:47.475Z,21.6
2017-03-22T03:38:55.561Z,21.7
2017-03-22T03:40:03.648Z,21.6
2017-03-22T03:41:11.734Z,21.5
2017-03-22T03:42:19.829Z,21.6
2017-03-22T03:43:27.908Z,21.5
2017-03-22T03:44:35.997Z,21.5
2017-03-22T03:45:44.087Z,21.6
2017-03-22T03:46:52.174Z,21.5
2017-03-22T03:48:00.258Z,21.5
2017-03-22T03:49:08.356Z,21.5
2017-03-22T03:50:16.435Z,21.5
2017-03-22T03:51:24.525Z,21.4
2017-03-22T03:52:32.607Z,21.4
2017-03-22T03:53:40.701Z,21.4
2017-03-22T03:54:48.788Z,21.4
2017-03-22T03:55:56.871Z,21.4
2017-03-22T03:57:04.959Z,21.4
2017-03-22T03:58:13.050Z,21.4
2017-03-22T03:59:21.138Z,21.3
2017-03-22T04:00:29.222Z,21.4
2017-03-22T04:01:37.304Z,21.3
2017-03-22T04:02:45.394Z,21.3
2017-03-22T04:03:53.480Z,21.4
2017-03-22T04:05:01.567Z,21.4
2017-03-22T04:06:09.653Z,21.3
2017-03-22T04:07:17.738Z,21.3
2017-03-22T04:08:25.823Z,21.4
2017-03-22T04:09:33.915Z,21.3
2017-03-22T04:10:42.001Z,21.3
2017-03-22T04:11:50.080Z,21.3
2017-03-22T04:12:58.175Z,21.2
2017-03-22T04:14:06.265Z,21.3
2017-03-22T04:15:14.349Z,21.3
2017-03-22T04:16:22.431Z,21.2
2017-03-22T04:17:30.518Z,21.3
2017-03-22T04:18:38.612Z,21.2
2017-03-22T04:19:46.695Z,21.2
2017-03-22T04:20:54.782Z,21.3
2017-03-22T04:22:02.867Z,21.2
2017-03-22T04:23:10.952Z,21.1
2017-03-22T04:24:19.039Z,21.2
2017-03-22T04:25:27.124Z,21.1
2017-03-22T04:26:35.214Z,21.2
2017-03-22T04:27:43.292Z,21.2
2017-03-22T04:28:51.390Z,21.1
2017-03-22T04:29:59.477Z,21.1
2017-03-22T04:31:07.559Z,21.0
2017-03-22T04:32:15.643Z,21.0
2017-03-22T04:33:23.733Z,21.1
2017-03-22T04:34:31.823Z,21.0
2017-03-22T04:35:39.922Z,21.0
2017-03-22T04:36:47.992Z,21.0
2017-03-22T04:37:56.081Z,21.0
2017-03-22T04:39:04.168Z,21.0
2017-03-22T04:40:12.253Z,21.0
2017-03-22T04:41:20.345Z,21.0
2017-03-22T04:42:28.422Z,21.0
2017-03-22T04:43:36.505Z,21.0
2017-03-22T04:44:44.593Z,21.0
2017-03-22T04:45:52.679Z,20.9
2017-03-22T04:47:00.762Z,20.9
2017-03-22T04:48:08.851Z,20.9
2017-03-22T04:49:16.939Z,20.9
2017-03-22T04:50:25.056Z,20.9
2017-03-22T04:51:33.107Z,20.9
2017-03-22T04:52:41.199Z,20.9
2017-03-22T04:53:49.290Z,20.9
2017-03-22T04:54:57.373Z,20.8
2017-03-22T04:56:05.466Z,20.9
2017-03-22T04:57:13.551Z,20.9
2017-03-22T04:58:21.642Z,20.8
2017-03-22T04:59:29.728Z,20.8
2017-03-22T05:00:37.819Z,20.8
2017-03-22T05:01:45.903Z,20.9
2017-03-22T05:02:53.990Z,20.8
2017-03-22T05:04:02.075Z,20.8
2017-03-22T05:05:10.164Z,20.8
2017-03-22T05:06:18.244Z,20.8
2017-03-22T05:07:26.334Z,20.8
2017-03-22T05:08:34.418Z,20.7
2017-03-22T05:09:42.504Z,20.7
2017-03-22T05:10:50.585Z,20.7
2017-03-22T05:11:58.673Z,20.7
2017-03-22T05:13:06.759Z,20.7
2017-03-22T05:14:14.844Z,20.7
2017-03-22T05:15:22.925Z,20.7
2017-03-22T05:16:31.418Z,20.7
2017-03-22T05:17:39.111Z,20.7
2017-03-22T05:18:47.188Z,20.6
2017-03-22T05:19:55.281Z,20.7
2017-03-22T05:21:03.364Z,20.6
2017-03-22T05:22:11.471Z,20.6
2017-03-22T05:23:19.538Z,20.6
2017-03-22T05:24:27.629Z,20.6
2017-03-22T05:25:35.714Z,20.6
2017-03-22T05:26:43.798Z,20.5
2017-03-22T05:27:51.883Z,20.5
2017-03-22T05:28:59.968Z,20.5
2017-03-22T05:30:08.049Z,20.6
2017-03-22T05:31:16.789Z,20.5
2017-03-22T05:32:25.143Z,20.5
2017-03-22T05:33:32.741Z,20.5
2017-03-22T05:34:40.389Z,20.4
2017-03-22T05:35:48.476Z,20.4
2017-03-22T05:36:56.567Z,20.5
2017-03-22T05:38:04.648Z,20.5
2017-03-22T05:39:12.768Z,20.3
2017-03-22T05:40:20.821Z,20.5
2017-03-22T05:41:28.905Z,20.5
2017-03-22T05:42:37.010Z,20.5
2017-03-22T05:43:45.082Z,20.5
2017-03-22T05:44:53.169Z,20.5
2017-03-22T05:46:01.248Z,20.5
2017-03-22T05:47:09.728Z,20.4
2017-03-22T05:48:17.423Z,20.3
2017-03-22T05:49:25.508Z,20.4
2017-03-22T05:50:33.595Z,20.3
2017-03-22T05:51:41.711Z,20.4
2017-03-22T05:52:49.806Z,20.3
2017-03-22T05:53:57.977Z,20.4
2017-03-22T05:55:05.938Z,20.3
2017-03-22T05:56:14.184Z,20.2
2017-03-22T05:57:22.132Z,20.3
2017-03-22T05:58:30.273Z,20.3
2017-03-22T05:59:38.285Z,20.4
2017-03-22T06:00:47.285Z,20.3
2017-03-22T06:01:54.456Z,20.2
2017-03-22T06:03:02.541Z,20.3
2017-03-22T06:04:10.634Z,20.2
2017-03-22T06:05:18.715Z,20.2
2017-03-22T06:06:26.795Z,20.3
2017-03-22T06:07:35.017Z,20.2
2017-03-22T06:08:42.968Z,20.2
2017-03-22T06:09:51.054Z,20.2
2017-03-22T06:10:59.250Z,20.3
2017-03-22T06:12:07.228Z,20.2
2017-03-22T06:13:15.314Z,20.2
2017-03-22T06:14:23.395Z,20.2
2017-03-22T06:15:31.484Z,20.1
2017-03-22T06:16:39.566Z,20.2
2017-03-22T06:17:47.650Z,20.1
2017-03-22T06:18:55.737Z,20.1
2017-03-22T06:20:03.823Z,20.2
2017-03-22T06:21:11.904Z,20.1
2017-03-22T06:22:19.989Z,20.1
2017-03-22T06:23:28.078Z,20.1
2017-03-22T06:24:36.170Z,20.1
2017-03-22T06:25:44.405Z,20.1
2017-03-22T06:26:52.333Z,20.1
2017-03-22T06:28:00.419Z,20.1
2017-03-22T06:29:08.505Z,20.0
2017-03-22T06:30:16.583Z,20.1
2017-03-22T06:31:24.673Z,20.0
2017-03-22T06:32:33.324Z,20.0
2017-03-22T06:33:40.839Z,20.0
2017-03-22T06:34:48.929Z,20.0
2017-03-22T06:35:57.013Z,20.0
2017-03-22T06:37:05.098Z,20.0
2017-03-22T06:38:13.179Z,20.0
2017-03-22T06:39:21.517Z,20.0
2017-03-22T06:40:29.363Z,20.0
2017-03-22T06:41:37.446Z,19.9
2017-03-22T06:42:45.542Z,20.0
2017-03-22T06:43:53.625Z,19.9
2017-03-22T06:45:01.785Z,19.9
2017-03-22T06:46:09.793Z,19.9
2017-03-22T06:47:17.882Z,19.9
2017-03-22T06:48:25.967Z,20.0
2017-03-22T06:49:34.047Z,19.9
2017-03-22T06:50:42.137Z,19.9
2017-03-22T06:51:50.226Z,19.9
2017-03-22T06:52:58.307Z,19.9
2017-03-22T06:54:06.398Z,19.9
2017-03-22T06:55:14.484Z,19.8
2017-03-22T06:56:22.569Z,19.9
2017-03-22T06:57:30.651Z,19.8
2017-03-22T06:58:38.740Z,19.8
2017-03-22T06:59:46.822Z,19.8
2017-03-22T07:00:54.908Z,19.8
2017-03-22T07:02:03.001Z,19.8
2017-03-22T07:03:11.078Z,19.7
2017-03-22T07:04:19.163Z,19.7
2017-03-22T07:05:27.244Z,19.7
2017-03-22T07:06:35.337Z,19.7
2017-03-22T07:07:43.418Z,19.7
2017-03-22T07:08:51.506Z,19.8
2017-03-22T07:09:59.592Z,19.7
2017-03-22T07:11:07.676Z,19.7
2017-03-22T07:12:15.762Z,19.7
2017-03-22T07:13:23.845Z,19.7
2017-03-22T07:14:31.939Z,19.7
2017-03-22T07:15:40.015Z,19.7
2017-03-22T07:16:48.098Z,19.7
2017-03-22T07:17:56.187Z,19.7
2017-03-22T07:19:04.275Z,19.7
2017-03-22T07:20:12.355Z,19.7
2017-03-22T07:21:20.438Z,19.7
2017-03-22T07:22:28.533Z,19.6
2017-03-22T07:23:36.619Z,19.7
2017-03-22T07:24:44.699Z,19.7
2017-03-22T07:25:52.788Z,19.7
2017-03-22T07:27:00.873Z,19.5
2017-03-22T07:28:08.958Z,19.7
2017-03-22T07:29:17.039Z,19.7
2017-03-22T07:30:25.126Z,19.6
2017-03-22T07:31:33.209Z,19.6
2017-03-22T07:32:41.299Z,19.6
2017-03-22T07:33:49.379Z,19.7
2017-03-22T07:34:57.467Z,19.6
2017-03-22T07:36:05.552Z,19.6
2017-03-22T07:37:13.632Z,19.6
2017-03-22T07:38:21.726Z,19.6
2017-03-22T07:39:29.811Z,19.6
2017-03-22T07:40:37.895Z,19.6
2017-03-22T07:41:45.985Z,19.5
2017-03-22T07:42:54.070Z,19.6
2017-03-22T07:44:02.153Z,19.6
2017-03-22T07:45:10.240Z,19.5
2017-03-22T07:46:18.328Z,19.5
2017-03-22T07:47:26.412Z,19.6
2017-03-22T07:48:34.494Z,19.6
2017-03-22T07:49:42.591Z,19.6
2017-03-22T07:50:50.678Z,19.6
2017-03-22T07:51:58.756Z,19.6
2017-03-22T07:53:06.840Z,19.6
2017-03-22T07:54:14.926Z,19.4
2017-03-22T07:55:23.005Z,19.6
2017-03-22T07:56:31.094Z,19.5
2017-03-22T07:57:39.190Z,19.6
2017-03-22T07:58:47.274Z,19.5
2017-03-22T07:59:55.354Z,19.5
2017-03-22T08:01:03.441Z,19.4
2017-03-22T08:02:11.549Z,19.4
2017-03-22T08:03:19.618Z,19.4
2017-03-22T08:04:27.704Z,19.5
2017-03-22T08:05:35.795Z,19.4
2017-03-22T08:06:43.882Z,19.4
2017-03-22T08:07:51.965Z,19.4
2017-03-22T08:09:00.055Z,19.5
2017-03-22T08:10:08.140Z,19.4
2017-03-22T08:11:16.226Z,19.4
2017-03-22T08:12:24.305Z,19.4
2017-03-22T08:13:32.393Z,19.4
2017-03-22T08:14:40.480Z,19.4
2017-03-22T08:15:48.575Z,19.4
2017-03-22T08:16:56.653Z,19.4
2017-03-22T08:18:04.747Z,19.3
2017-03-22T08:19:12.821Z,19.4
2017-03-22T08:20:20.907Z,19.4
2017-03-22T08:21:28.994Z,19.4
2017-03-22T08:22:37.090Z,19.4
2017-03-22T08:23:45.168Z,19.3
2017-03-22T08:24:53.254Z,19.3
2017-03-22T08:26:01.341Z,19.2
2017-03-22T08:27:09.424Z,19.3
2017-03-22T08:28:17.506Z,19.2
2017-03-22T08:29:25.593Z,19.3
2017-03-22T08:30:33.675Z,19.3
2017-03-22T08:31:41.759Z,19.3
2017-03-22T08:32:49.850Z,19.2
2017-03-22T08:33:57.931Z,19.3
2017-03-22T08:35:06.013Z,19.2
2017-03-22T08:36:14.098Z,19.2
2017-03-22T08:37:22.185Z,19.3
2017-03-22T08:38:30.268Z,19.2
2017-03-22T08:39:38.350Z,19.2
2017-03-22T08:40:46.437Z,19.2
2017-03-22T08:41:54.520Z,19.1
2017-03-22T08:43:02.601Z,19.2
2017-03-22T08:44:10.687Z,19.1
2017-03-22T08:45:18.781Z,19.1
2017-03-22T08:46:26.867Z,19.1
2017-03-22T08:47:34.948Z,19.1
2017-03-22T08:48:43.036Z,19.1
2017-03-22T08:49:51.118Z,19.2
2017-03-22T08:50:59.199Z,19.1
2017-03-22T08:52:07.284Z,19.1
2017-03-22T08:53:15.371Z,19.1
2017-03-22T08:54:23.453Z,19.1
2017-03-22T08:55:31.535Z,19.1
2017-03-22T08:56:39.627Z,19.1
2017-03-22T08:57:47.710Z,19.0
2017-03-22T08:58:55.796Z,19.1
2017-03-22T09:00:03.880Z,19.1
2017-03-22T09:01:11.962Z,18.9
2017-03-22T09:02:20.050Z,19.1
2017-03-22T09:03:28.127Z,19.1
2017-03-22T09:04:36.216Z,19.1
2017-03-22T09:05:44.302Z,19.1
2017-03-22T09:06:52.383Z,19.1
2017-03-22T09:08:00.471Z,19.1
2017-03-22T09:09:08.556Z,19.0
2017-03-22T09:10:16.645Z,19.0
2017-03-22T09:11:24.723Z,19.0
2017-03-22T09:12:32.812Z,18.9
2017-03-22T09:13:40.904Z,18.9
2017-03-22T09:14:48.985Z,19.0
2017-03-22T09:15:57.076Z,18.9
2017-03-22T09:17:05.163Z,18.9
2017-03-22T09:18:13.249Z,18.9
2017-03-22T09:19:21.332Z,18.9
2017-03-22T09:20:29.418Z,18.9
2017-03-22T09:21:37.504Z,19.0
2017-03-22T09:22:45.583Z,19.0
2017-03-22T09:23:53.673Z,18.9
2017-03-22T09:25:01.754Z,19.0
2017-03-22T09:26:09.843Z,19.0
2017-03-22T09:27:17.923Z,18.8
2017-03-22T09:28:26.011Z,18.8
2017-03-22T09:29:34.094Z,18.9
2017-03-22T09:30:42.280Z,18.8
2017-03-22T09:31:50.262Z,18.9
2017-03-22T09:32:58.345Z,18.8
2017-03-22T09:34:06.427Z,18.9
2017-03-22T09:35:14.510Z,18.8
2017-03-22T09:36:22.602Z,18.9
2017-03-22T09:37:30.685Z,18.8
2017-03-22T09:38:38.770Z,18.8
2017-03-22T09:39:46.855Z,18.8
2017-03-22T09:40:54.943Z,18.8
2017-03-22T09:42:03.026Z,18.8
2017-03-22T09:43:11.110Z,18.8
2017-03-22T09:44:19.200Z,18.8
2017-03-22T09:45:27.283Z,18.8
2017-03-22T09:46:35.365Z,18.8
2017-03-22T09:47:43.476Z,18.7
2017-03-22T09:48:51.536Z,18.8
2017-03-22T09:49:59.623Z,18.8
2017-03-22T09:51:07.703Z,18.8
2017-03-22T09:52:15.791Z,18.8
2017-03-22T09:53:23.873Z,18.7
2017-03-22T09:54:31.955Z,18.8
2017-03-22T09:55:40.040Z,18.7
2017-03-22T09:56:48.124Z,18.8
2017-03-22T09:57:56.206Z,18.7
2017-03-22T09:59:04.294Z,18.7
2017-03-22T10:00:12.379Z,18.7
2017-03-22T10:01:20.463Z,18.7
2017-03-22T10:02:28.547Z,18.7
2017-03-22T10:03:36.632Z,18.7
2017-03-22T10:04:44.732Z,18.7
2017-03-22T10:05:52.794Z,18.7
2017-03-22T10:07:00.880Z,18.7
2017-03-22T10:08:08.969Z,18.7
2017-03-22T10:09:17.050Z,18.7
2017-03-22T10:10:25.134Z,18.7
2017-03-22T10:11:33.225Z,18.7
2017-03-22T10:12:41.310Z,18.7
2017-03-22T10:13:49.392Z,18.6
2017-03-22T10:14:57.477Z,18.7
2017-03-22T10:16:05.563Z,18.7
2017-03-22T10:17:13.664Z,18.7
2017-03-22T10:18:21.723Z,18.6
2017-03-22T10:19:29.814Z,18.7
2017-03-22T10:20:37.899Z,18.7
2017-03-22T10:21:45.980Z,18.7
2017-03-22T10:22:54.069Z,18.6
2017-03-22T10:24:02.153Z,18.6
2017-03-22T10:25:10.243Z,18.6
2017-03-22T10:26:18.325Z,18.6
2017-03-22T10:27:26.410Z,18.5
2017-03-22T10:28:34.493Z,18.5
2017-03-22T10:29:42.578Z,18.6
2017-03-22T10:30:50.663Z,18.5
2017-03-22T10:31:58.746Z,18.5
2017-03-22T10:33:06.829Z,18.5
2017-03-22T10:34:14.912Z,18.5
2017-03-22T10:35:23.000Z,18.6
2017-03-22T10:36:31.085Z,18.5
2017-03-22T10:37:39.179Z,18.5
2017-03-22T10:38:47.255Z,18.5
2017-03-22T10:39:55.342Z,18.5
2017-03-22T10:41:03.424Z,18.4
2017-03-22T10:42:11.507Z,18.5
2017-03-22T10:43:19.597Z,18.6
2017-03-22T10:44:27.677Z,18.4
2017-03-22T10:45:35.759Z,18.5
2017-03-22T10:46:43.848Z,18.5
2017-03-22T10:47:51.930Z,18.5
2017-03-22T10:49:00.015Z,18.4
2017-03-22T10:50:08.102Z,18.4
2017-03-22T10:51:16.180Z,18.4
2017-03-22T10:52:24.265Z,18.4
2017-03-22T10:53:32.344Z,18.4
2017-03-22T10:54:40.433Z,18.4
2017-03-22T10:55:48.517Z,18.4
2017-03-22T10:56:56.612Z,18.4
2017-03-22T10:58:04.688Z,18.4
2017-03-22T10:59:12.787Z,18.5
2017-03-22T11:00:20.871Z,18.4
2017-03-22T11:01:28.953Z,18.4
2017-03-22T11:02:37.040Z,18.5
2017-03-22T11:03:45.129Z,18.4
2017-03-22T11:04:53.207Z,18.3
2017-03-22T11:06:01.294Z,18.4
2017-03-22T11:07:09.376Z,18.3
2017-03-22T11:08:17.460Z,18.4
2017-03-22T11:09:25.552Z,18.3
2017-03-22T11:10:33.635Z,18.4
2017-03-22T11:11:41.715Z,18.3
2017-03-22T11:12:49.804Z,18.3
2017-03-22T11:13:57.916Z,18.3
2017-03-22T11:15:05.973Z,18.3
2017-03-22T11:16:14.064Z,18.3
2017-03-22T11:17:22.144Z,18.3
2017-03-22T11:18:30.226Z,18.3
2017-03-22T11:19:38.309Z,18.3
2017-03-22T11:20:46.393Z,18.2
2017-03-22T11:21:54.480Z,18.2
2017-03-22T11:23:02.569Z,18.3
2017-03-22T11:24:10.653Z,18.2
2017-03-22T11:25:18.730Z,18.2
2017-03-22T11:26:26.819Z,18.2
2017-03-22T11:27:34.902Z,18.2
2017-03-22T11:28:42.983Z,18.2
2017-03-22T11:29:51.065Z,18.3
2017-03-22T11:30:59.157Z,18.2
2017-03-22T11:32:07.238Z,18.2
2017-03-22T11:33:15.322Z,18.2
2017-03-22T11:34:23.408Z,18.2
2017-03-22T11:35:31.497Z,18.2
2017-03-22T11:36:39.576Z,18.2
2017-03-22T11:37:47.666Z,18.2
2017-03-22T11:38:55.750Z,18.2
2017-03-22T11:40:03.834Z,18.2
2017-03-22T11:41:11.913Z,18.2
2017-03-22T11:42:19.999Z,18.2
2017-03-22T11:43:28.081Z,18.2
2017-03-22T11:44:36.165Z,18.2
2017-03-22T11:45:44.252Z,18.2
2017-03-22T11:46:52.342Z,18.2
2017-03-22T11:48:00.423Z,18.2
2017-03-22T11:49:08.502Z,18.2
2017-03-22T11:50:16.592Z,18.2
2017-03-22T11:51:24.673Z,18.1
2017-03-22T11:52:32.752Z,18.2
2017-03-22T11:53:40.845Z,18.1
2017-03-22T11:54:48.930Z,18.2
2017-03-22T11:55:57.013Z,18.1
2017-03-22T11:57:05.103Z,18.2
2017-03-22T11:58:13.187Z,18.2
2017-03-22T11:59:21.273Z,18.1
2017-03-22T12:00:29.348Z,18.1
2017-03-22T12:01:37.444Z,18.1
2017-03-22T12:02:45.523Z,18.1
2017-03-22T12:03:53.609Z,18.1
2017-03-22T12:05:01.694Z,18.2
2017-03-22T12:06:09.775Z,18.1
2017-03-22T12:07:17.863Z,18.1
2017-03-22T12:08:25.946Z,18.1
2017-03-22T12:09:34.032Z,18.1
2017-03-22T12:10:42.116Z,18.1
2017-03-22T12:11:50.198Z,18.1
2017-03-22T12:12:58.286Z,18.1
2017-03-22T12:14:06.371Z,18.1
2017-03-22T12:15:14.456Z,18.1
2017-03-22T12:16:22.534Z,18.1
2017-03-22T12:17:30.623Z,18.0
2017-03-22T12:18:38.706Z,18.1
2017-03-22T12:19:46.784Z,18.1
2017-03-22T12:20:54.875Z,18.0
2017-03-22T12:22:02.954Z,18.0
2017-03-22T12:23:11.038Z,18.0
2017-03-22T12:24:19.118Z,18.0
2017-03-22T12:25:27.208Z,18.0
2017-03-22T12:26:35.292Z,18.1
2017-03-22T12:27:43.370Z,18.0
2017-03-22T12:28:51.459Z,18.0
2017-03-22T12:29:59.541Z,18.0
2017-03-22T12:31:07.621Z,18.0
2017-03-22T12:32:15.713Z,18.0
2017-03-22T12:33:23.799Z,18.1
2017-03-22T12:34:31.878Z,18.0
2017-03-22T12:35:39.959Z,18.1
2017-03-22T12:36:48.051Z,18.0
2017-03-22T12:37:56.136Z,18.0
2017-03-22T12:39:04.224Z,18.1
2017-03-22T12:40:12.318Z,17.9
2017-03-22T12:41:20.394Z,18.0
2017-03-22T12:42:28.506Z,18.0
2017-03-22T12:43:36.561Z,18.1
2017-03-22T12:44:44.650Z,18.0
2017-03-22T12:45:52.735Z,18.0
2017-03-22T12:47:00.816Z,18.0
2017-03-22T12:48:08.903Z,17.9
2017-03-22T12:49:16.993Z,18.1
2017-03-22T12:50:25.092Z,18.0
2017-03-22T12:51:33.162Z,18.0
2017-03-22T12:52:41.246Z,18.0
2017-03-22T12:53:49.326Z,18.0
2017-03-22T12:54:57.410Z,18.0
2017-03-22T12:56:05.497Z,18.0
2017-03-22T12:57:13.583Z,17.9
2017-03-22T12:58:21.672Z,17.9
2017-03-22T12:59:29.751Z,17.9
2017-03-22T13:00:37.841Z,18.0
2017-03-22T13:01:45.925Z,17.9
2017-03-22T13:02:54.006Z,17.9
2017-03-22T13:04:02.091Z,17.9
2017-03-22T13:05:10.180Z,17.9
2017-03-22T13:06:18.259Z,17.9
2017-03-22T13:07:26.390Z,17.9
2017-03-22T13:08:34.430Z,17.9
2017-03-22T13:09:42.516Z,17.9
2017-03-22T13:10:50.599Z,17.9
2017-03-22T13:11:58.685Z,17.9
2017-03-22T13:13:06.776Z,17.9
2017-03-22T13:14:14.858Z,17.9
2017-03-22T13:15:22.946Z,17.9
2017-03-22T13:16:31.030Z,17.9
2017-03-22T13:17:39.112Z,17.8
2017-03-22T13:18:47.191Z,17.8
2017-03-22T13:19:55.278Z,17.9
2017-03-22T13:21:03.374Z,17.8
2017-03-22T13:22:11.443Z,17.8
2017-03-22T13:23:19.523Z,17.8
2017-03-22T13:24:27.636Z,17.8
2017-03-22T13:25:35.698Z,17.8
2017-03-22T13:26:43.781Z,17.9
2017-03-22T13:27:51.864Z,17.8
2017-03-22T13:28:59.950Z,17.8
2017-03-22T13:30:08.028Z,17.8
2017-03-22T13:31:16.114Z,17.8
2017-03-22T13:32:24.204Z,17.8
2017-03-22T13:33:32.285Z,17.8
2017-03-22T13:34:40.367Z,17.7
2017-03-22T13:35:48.454Z,17.8
2017-03-22T13:36:56.537Z,17.8
2017-03-22T13:38:04.624Z,17.8
2017-03-22T13:39:12.703Z,17.7
2017-03-22T13:40:20.789Z,17.8
2017-03-22T13:41:28.880Z,17.8
2017-03-22T13:42:36.959Z,17.8
2017-03-22T13:43:45.046Z,17.8
2017-03-22T13:44:53.133Z,17.7
2017-03-22T13:46:01.213Z,17.7
2017-03-22T13:47:09.295Z,17.7
2017-03-22T13:48:17.385Z,17.7
2017-03-22T13:49:25.467Z,17.7
2017-03-22T13:50:33.551Z,17.7
2017-03-22T13:51:41.632Z,17.7
2017-03-22T13:52:49.717Z,17.7
2017-03-22T13:53:57.793Z,17.7
2017-03-22T13:55:05.900Z,17.7
2017-03-22T13:56:13.975Z,17.7
2017-03-22T13:57:22.059Z,17.7
2017-03-22T13:58:30.138Z,17.7
2017-03-22T13:59:38.227Z,17.7
2017-03-22T14:00:46.309Z,17.8
2017-03-22T14:01:54.391Z,17.7
2017-03-22T14:03:02.471Z,17.7
2017-03-22T14:04:10.560Z,17.7
2017-03-22T14:05:18.643Z,17.7
2017-03-22T14:06:26.723Z,17.7
2017-03-22T14:07:34.814Z,17.7
2017-03-22T14:08:42.896Z,17.7
2017-03-22T14:09:50.974Z,17.7
2017-03-22T14:10:59.063Z,17.7
2017-03-22T14:12:07.149Z,17.7
2017-03-22T14:13:15.230Z,17.7
2017-03-22T14:14:23.309Z,17.7
2017-03-22T14:15:31.397Z,17.7
2017-03-22T14:16:39.492Z,17.7
2017-03-22T14:17:47.584Z,17.6
2017-03-22T14:18:55.660Z,17.5
2017-03-22T14:20:03.745Z,17.6
2017-03-22T14:21:11.828Z,17.6
2017-03-22T14:22:19.911Z,17.5
2017-03-22T14:23:27.997Z,17.6
2017-03-22T14:24:36.085Z,17.5
2017-03-22T14:25:44.168Z,17.6
2017-03-22T14:26:52.251Z,17.5
2017-03-22T14:28:00.336Z,17.6
2017-03-22T14:29:08.417Z,17.5
2017-03-22T14:30:16.501Z,17.6
2017-03-22T14:31:24.585Z,17.6
2017-03-22T14:32:32.668Z,17.6
2017-03-22T14:33:40.750Z,17.5
2017-03-22T14:34:48.835Z,17.5
2017-03-22T14:35:56.918Z,17.6
2017-03-22T14:37:05.000Z,17.6
2017-03-22T14:38:13.083Z,17.5
2017-03-22T14:39:21.170Z,17.5
2017-03-22T14:40:29.256Z,17.5
2017-03-22T14:41:37.336Z,17.5
2017-03-22T14:42:45.423Z,17.5
2017-03-22T14:43:53.504Z,17.6
2017-03-22T14:45:01.583Z,17.5
2017-03-22T14:46:09.674Z,17.4
2017-03-22T14:47:17.753Z,17.4
2017-03-22T14:48:25.841Z,17.4
2017-03-22T14:49:33.924Z,17.4
2017-03-22T14:50:42.006Z,17.5
2017-03-22T14:51:50.090Z,17.4
2017-03-22T14:52:58.170Z,17.5
2017-03-22T14:54:06.255Z,17.5
2017-03-22T14:55:14.341Z,17.5
2017-03-22T14:56:22.420Z,17.5
2017-03-22T14:57:30.504Z,17.5
2017-03-22T14:58:38.592Z,17.5
2017-03-22T14:59:46.675Z,17.4
2017-03-22T15:00:54.762Z,17.5
2017-03-22T15:02:02.845Z,17.5
2017-03-22T15:03:10.927Z,17.5
2017-03-22T15:04:19.011Z,17.4
2017-03-22T15:05:27.092Z,17.4
2017-03-22T15:06:35.208Z,17.5